KPTB/PTB METAR and TAF weather

Enter ICAO airport designator
Station Type Date Time Source
KPTB METAR 2022/01/27 23:35 UTC NOAA

KPTB 272335Z AUTO 00000KT 10SM CLR M03/M10 A3030 RMK AO2 T10261102


Station Type Date Time Source
KPTB Decoded METAR 2022/01/27 23:35 UTC NOAA

Petersburg, Dinwiddie County Airport, VA, United States (KPTB) 37-11N 077-31W
Jan 27, 2022 - 06:35 PM EST / 2022.01.27 2335 UTC
Wind: Calm:0
Visibility: 10 mile(s):0
Sky conditions: clear
Temperature: 27.3 F (-2.6 C)
Dew Point: 13.6 F (-10.2 C)
Relative Humidity: 55%
Pressure (altimeter): 30.3 in. Hg (1026 hPa)
ob: KPTB 272335Z AUTO 00000KT 10SM CLR M03/M10 A3030 RMK AO2 T10261102
cycle: 23

Station Type Date Time Source
KPTB TAF UTC NOAA

Error!

Example: see airport list